arxmliv
arxmliv build tool
 
KWARC group
LaTeXML
About
   
 

Detailed info

Back to Homepage

List of missing_macros

No. Date Filename num_warningnum_errornum_xmargok_xmargnum_xmathok_xmathMissing macros
106401 2013-03-10 22:51:54 /0706/0706.0332 630000[\email, \keywords]; 1 missing file[posh.sty].
106402 2013-03-10 22:51:51 /0706/0706.0315 22130000[\node, \arrow, {diagram}].
106403 2013-03-10 22:51:34 /0706/0706.0314 16130000[\Abstract, \EmailDD, \ArticleName, \ShortArticleName, \FirstPageHeading, \Address, \pdfbookmark, \LastPageEnding, \Classification, \ArticleDates, \Author, \AuthorNameForHeading, \Keywords].
106404 2013-03-10 22:50:57 /0706/0706.0301 030000[\extrasenglish, \dateenglish, \captionsenglish].
106405 2013-03-10 22:50:46 /0706/0706.0306 190000[\setkomafont, \addtokomafont, \setcapindent]; 7 missing files[bibgerm.sty, pst-blur.sty, afterpage.sty, pst-all.sty, footnpag.sty, concrete.sty, scrartcl.cls].
106406 2013-03-10 22:50:39 /0706/0706.0293 8090000[\Line, \Oval, \Curve, \Text, \SetWidth, \DashCurve, \LongArrow, \CArc, \DashLine].
106407 2013-03-10 22:50:25 /0706/0706.0272 520000[\xyoption]; 1 missing file[xy.sty].
106408 2013-03-10 22:50:16 /0706/0706.0292 210000[\subjclassyear].
106409 2013-03-10 22:50:06 /0706/0706.0294 1040000[{sidewaysfigure}]; 2 missing files[hyphenat.sty, boxedminipage.sty].
106410 2013-03-10 22:49:40 /0706/0706.0278 38320000[\arcmin, \apj, \timeform, \lesssim, \atom, \citep, \emissiontype, \aaps, \pasj, \apjl, \aap, \procspie, \gca, \Accepted, \email, \pasp, \arcsec, \araa, \KeyWords, \aj, \Published, \apss, \altaffilmark, \Received, \apjs, \mnras, \FigureFile, \farcm, \cite
106411 2013-03-10 22:49:29 /0706/0706.0288 530000[\psfrag].
106412 2013-03-10 22:49:15 /0706/0706.0282 340000[\ArrowLine, \Text, \Photon, \SetColor].
106413 2013-03-10 22:48:18 /0706/0706.0245 1410000[\theappendix].
106414 2013-03-10 22:48:12 /0706/0706.0253 2240000[\apj, \citep, \emissiontype, \pasj, \apjl, \endfirsthead, \micron, \Accepted, \arcsec, \KeyWords, \draft, \aj, {longtable}, \altaffilmark, \Received, \apjs, Align, \FigureFile, \altaffiltext, \citet, \SetRunningHead]; 1 missing file[pasj00.cls].
106415 2013-03-10 22:47:44 /0706/0706.0222 46380000[\lTo, \newarrow, \rTo, \ruTo, \rdTo, \luTo, Align, \dTo, \ldTo, {diagram}].
106416 2013-03-10 22:47:19 /0706/0706.0247 1880000[\pacs, \inst, \un, \vect, \shortauthor, \institute, \onefigure, \acknowledgments, \Page, \shorttitle, \Name, \chem, \REVIEW, \etal]; 1 missing file[epl2.cls].
106417 2013-03-10 22:46:50 /0706/0706.0225 6820000[\centerfigcaptionstrue, {proof}]; 1 missing file[IEEEtran.cls].
106418 2013-03-10 22:46:46 /0706/0706.0228 540000[\inst, \PACS, \titlerunning, \institute].
106419 2013-03-10 22:46:35 /0706/0706.0217 36860000[\uwave, \normalem, \dashline]; 1 missing file[scrtime.sty].
106420 2013-03-10 22:46:29 /0706/0706.0230 540000[\inst, \PACS, \titlerunning, \institute].
106421 2013-03-10 22:45:47 /0706/0706.0201 630000[\xymatrix, \ar]; 1 missing file[xy.sty].
106422 2013-03-10 22:45:32 /0706/0706.0220 180000[\includegraphics, \shortauthors, \email, \shorttitle, \afiliations, \authors]; 1 missing file[icrctc07.sty].
106423 2013-03-10 22:45:30 /0706/0706.0221 4110000[\includegraphics, \shortauthors, \email, \shorttitle, \afiliations, \authors]; 1 missing file[icrctc07.sty].
106424 2013-03-10 22:45:25 /0706/0706.0191 0160000[\midrule, \endhead, \endfirsthead, {longtable}, \endfoot, Align, \toprule, \endlastfoot, \bottomrule]; 1 missing file[aalongtable.sty].
106425 2013-03-10 22:45:21 /0706/0706.0167 2540000[\\, \title, \date, \author].
106426 2013-03-10 22:45:02 /0706/0706.0162 3710000[\textswab].
106427 2013-03-10 22:44:55 /0706/0706.0172 3240000[\title, \date, \thanks, \author].
106428 2013-03-10 22:43:48 /0706/0706.0187 220000[\doi, \received]; 1 missing file[tPHM2e.cls].
106429 2013-03-10 22:43:29 /0706/0706.0138 4210000[\psfrag].
106430 2013-03-10 22:42:57 /0706/0706.0163 2510000[\@end@institute].
106431 2013-03-10 22:42:41 /0706/0706.0164 720000[\dint].
106432 2013-03-10 22:42:27 /0706/0706.0151 030000[\extrasenglish, \dateenglish, \captionsenglish].
106433 2013-03-10 22:42:25 /0706/0706.0149 010000[\@end@institute].
106434 2013-03-10 22:42:23 /0706/0706.0148 250000[\affil, \apj, \reference, {references}]; 1 missing file[asp2006.sty].
106435 2013-03-10 22:42:16 /0706/0706.0142 140000[\ShortTitle, \email, \FullConference, \speaker]; 1 missing file[PoS.cls].
106436 2013-03-10 22:42:07 /0706/0706.0116 230000[\extrasenglish, \dateenglish, \captionsenglish].
106437 2013-03-10 22:41:44 /0706/0706.0123 63120000[\includegraphics, \epsfig, \psfig]; 1 missing file[cupconf.sty].
106438 2013-03-10 22:41:21 /0706/0706.0120 310000[\mathinner].
106439 2013-03-10 22:41:08 /0706/0706.0124 210000[\na].
106440 2013-03-10 22:40:47 /0706/0706.0101 1720000[\psfrag, \psfragscanon].
106441 2013-03-10 22:40:37 /0706/0706.0089 57140000[Align, \xymatrix, \ar]; 1 missing file[xy.sty].
106442 2013-03-10 22:40:37 /0706/0706.0110 120000[\medcirc, \medbullet].
106443 2013-03-10 22:40:35 /0706/0706.0112 2540000[\kword, \abst, \inst, \recdate].
106444 2013-03-10 22:40:18 /0706/0706.0027 106230000[Align, \xymatrix, \ar]; 1 missing file[xy.sty].
106445 2013-03-10 22:39:33 /0706/0706.0073 13340000[\address, \email, \keywords, \marginsize].
106446 2013-03-10 22:39:28 /0706/0706.0092 070000[\surname, \runningauthor, \institute, {opening}, {article}, \keywords, \newdisplay].
106447 2013-03-10 22:38:49 /0706/0706.0058 1550000[Align, \xyoption, \xymatrix, \ar]; 1 missing file[xy.sty].
106448 2013-03-10 22:38:26 /0706/0706.0068 1160000[\apj, \lesssim, \timeform, \aap, \Accepted, \email, \pasp, \KeyWords, \draft, \aj, \altaffilmark, \Received, \apjs, \FigureFile, \altaffiltext, \SetRunningHead]; 1 missing file[pasj00.cls].
106449 2013-03-10 22:38:16 /0706/0706.0070 190000[\draft, \altaffilmark, \Received, \FigureFile, \Accepted, \email, \altaffiltext, \SetRunningHead, \KeyWords]; 1 missing file[pasj00.cls].
106450 2013-03-10 22:38:02 /0706/0706.0055 110000[\citeauthoryear].
106451 2013-03-10 22:37:23 /0706/0706.0045 5110000[\affil, \timeform, \citep, \Received, \FigureFile, \Accepted, \email, \MO, \citet, \SetRunningHead, \KeyWords]; 1 missing file[pasj00.cls].
106452 2013-03-10 22:37:20 /0706/0706.0044 7140000[\Book, \pacs, \inst, \shortauthor, \institute, \acknowledgments, \includegraphics, \Publ, \shorttitle, \Name, \Pages, \Year, \REVIEW, \etal]; 1 missing file[epl2.cls].
106453 2013-03-10 22:37:05 /0706/0706.0021 1720000[{comment}, \mathinner].
106454 2013-03-10 22:36:50 /0706/0706.0020 4680000[{lemma}, {theorem}, \authorinfo, \thetheorem, {definition}, \skiplinehalf, {proof}, \supit]; 1 missing file[spie.cls].
106455 2013-03-10 22:36:46 /0706/0706.0018 11100000[\pacs, \email, \affiliation, {ruledtabular}, \acknowledgments]; 1 missing file[oxprepr.cls].
106456 2013-03-10 22:36:09 /0706/0706.0025 1210000[\@end@institute].
106457 2013-03-10 22:35:30 /0705/0705.4569 20470000[\bigcircle, \dottedline, \matrixput, \multiputlist]; 1 missing file[xy.sty].
106458 2013-03-10 22:34:59 /0705/0705.4677 460000[\colrule, \catchline, \botrule, \psfig, \toprule, \tbl].
106459 2013-03-10 22:34:48 /0705/0705.4641 17610000[\theappendix].
106460 2013-03-10 22:34:27 /0705/0705.4665 030000[\extrasenglish, \dateenglish, \captionsenglish].
106461 2013-03-10 22:33:33 /0705/0705.4624 590000[\cP, \sodtitle, \lat, \rauthor, \sodauthor, \address, \cC, \PACS, \rtitle].
106462 2013-03-10 22:33:25 /0705/0705.4602 6980000[Align, \xymatrix, \ar]; 1 missing file[xy.sty].
106463 2013-03-10 22:33:17 /0705/0705.4623 390000[{acknowledgments}, \firstsection, \editors, \affiliation, \jname, \pagerange, \keywords, \volume, \pubyear]; 1 missing file[iaus.cls].
106464 2013-03-10 22:33:04 /0705/0705.4617 1010000[\institute]; 1 missing file[cernrepNum-v2.cls].
106465 2013-03-10 22:33:03 /0705/0705.4613 2530000[\rightsquigarrow, \frak, \selectlanguage].
106466 2013-03-10 22:32:40 /0705/0705.4621 110000[{keywords}]; 1 missing file[basi.cls].
106467 2013-03-10 22:32:30 /0705/0705.4604 5420000[\drawline, \dashline].
106468 2013-03-10 22:32:29 /0705/0705.4603 010000[\citeauthoryear].
106469 2013-03-10 22:32:10 /0705/0705.4606 1010000[\geometry].
106470 2013-03-10 22:31:40 /0705/0705.4597 320000[{sidewaysfigure*}].
106471 2013-03-10 22:31:19 /0705/0705.4587 2660000[\@captype, \the\@captype].
106472 2013-03-10 22:30:59 /0705/0705.4582 730000[\ocis, \address]; 1 missing file[osajnl2.sty].
106473 2013-03-10 22:30:47 /0705/0705.4583 010000[\Text].
106474 2013-03-10 22:30:34 /0705/0705.4584 020000[\And]; 1 missing file[digra.sty].
106475 2013-03-10 22:30:23 /0705/0705.4577 24320000[\fmffreeze, {fmffile}, \fmf, \fmfbottom, \fmfv, \fmftop, {fmfgraph*}, \fmfset, \fmfleft, \fmfright, \fmfstraight, \fmfi].
106476 2013-03-10 22:30:07 /0705/0705.4576 13100000[\rhead, \rfoot, {contribution}, \lfoot, \cfoot, \lhead, \collaboration, \chead]; 2 missing files[psi-scirep.sty, fancyhydr.sty].
106477 2013-03-10 22:30:00 /0705/0705.4566 1110000[\theappendix].
106478 2013-03-10 22:29:59 /0705/0705.4578 3130000[\looparrowright, \ccode, {theorem}, \mathbb, \keywords, {definition}, {example}, \address, {corollary}, {remark}, {question}, {proof}, {proposition}].
106479 2013-03-10 22:29:52 /0705/0705.4556 5170000[\tbigotimes, \tbigwedge, \tprod, \QATOP, \tbigoplus, \tint, \tsum].
106480 2013-03-10 22:29:52 /0705/0705.4560 430000[{keywords}, \epsfig]; 1 missing file[basi.sty].
106481 2013-03-10 22:29:46 /0705/0705.4563 34050000[\email, \affiliation, \PassOptionsToPackage, \keywords]; 2 missing files[type1cm.sty, cccconf.cls].
106482 2013-03-10 22:29:25 /0705/0705.4567 1910000[\psfrag].
106483 2013-03-10 22:29:13 /0705/0705.4531 6140000[\address]; 1 missing file[graphpap.sty].
106484 2013-03-10 22:28:36 /0705/0705.4551 030000[\extrasenglish, \dateenglish, \captionsenglish].
106485 2013-03-10 22:28:31 /0705/0705.4532 6170000[{xy}, Align, \dir, \xymatrix, \ar]; 1 missing file[xy.sty].
106486 2013-03-10 22:28:26 /0705/0705.4524 4350000[\psaxes, \young, \chaptermark].
106487 2013-03-10 22:27:52 /0705/0705.4545 24110000[\node, \arrow, \dgARROWLENGTH, {diagram}]; 2 missing files[pst-all.sty, xy.sty].
106488 2013-03-10 22:27:46 /0705/0705.4546 25220000[{lemma}, {theorem}, \pdfbookmark, \LastPageEnding, \Classification, \ArticleDates, {example}, {conjecture}, {remark}, \AuthorNameForHeading, \URLaddress, {proposition}, \Abstract, \ArticleName, \ShortArticleName, \FirstPageHeading, \Address, \Author, {de
106489 2013-03-10 22:27:12 /0705/0705.4528 1720000[\bbl@allowhyphens, \umlautelow].
106490 2013-03-10 22:26:55 /0705/0705.4498 3680000[\endxy, Align, \xyoption, \xymatrix, \xy, \ar, \frm]; 1 missing file[xy.sty].
106491 2013-03-10 22:26:30 /0705/0705.4499 3930000[Align, \xymatrix, \ar].
106492 2013-03-10 22:25:58 /0705/0705.4506 2660000[Align, \xymatrix, \ar]; 1 missing file[xy.sty].
106493 2013-03-10 22:25:56 /0705/0705.4511 210000[\theappendix].
106494 2013-03-10 22:25:41 /0705/0705.4509 3530000[{keywords}, \PARstart, \IEEEpeerreviewmaketitle]; 1 missing file[IEEEtran.cls].
106495 2013-03-10 22:24:52 /0705/0705.4496 2980000[\endxy, Align, \xyoption, \xymatrix, \xy, \ar, \frm]; 1 missing file[xy.sty].
106496 2013-03-10 22:24:36 /0705/0705.4423 70110000[\dottedline].
106497 2013-03-10 22:24:14 /0705/0705.4485 12160000[\theappendix, {sidewaysfigure}, \hyp]; 2 missing files[hyphenat.sty, boxedminipage.sty].
106498 2013-03-10 22:23:36 /0705/0705.4444 37240000[\dTo, Align, \rTo, {diagram}].
106499 2013-03-10 22:23:15 /0705/0705.4466 910000[\geometry].
106500 2013-03-10 22:22:52 /0705/0705.4474 3410000[\geometry].
106501 2013-03-10 22:22:30 /0705/0705.4456 190000[{acknowledgments}, \editors, \affiliation, \keywords, \volume, \pagerange, \jname, \pubyear, \etal]; 1 missing file[iaus.cls].
106502 2013-03-10 22:22:26 /0705/0705.4458 15100000[\fmffreeze, {fmffile}, \fmf, \fmflabel, \fmftop, {fmfgraph*}, \fmfleft, \fmfright, \fmfstraight].
106503 2013-03-10 22:22:18 /0705/0705.4459 7120000[\includegraphics, \shortauthors, \email, \shorttitle, \afiliations, \authors]; 1 missing file[icrctc07.sty].
106504 2013-03-10 22:22:00 /0705/0705.4443 110000[\sep].
106505 2013-03-10 22:21:55 /0705/0705.4432 1960000[Align, \xymatrix, \ar]; 1 missing file[xy.sty].
106506 2013-03-10 22:21:46 /0705/0705.4445 130000[\authorinfo, \skiplinehalf, \keywords]; 1 missing file[spie.cls].
106507 2013-03-10 22:21:12 /0705/0705.4453 4110000[\includegraphics, \shortauthors, \email, \shorttitle, \afiliations, \authors]; 1 missing file[icrctc07.sty].
106508 2013-03-10 22:20:53 /0705/0705.4406 25150000[\uTo, \dTo, Align, \pile, \rInto, \rTo, {diagram}].
106509 2013-03-10 22:20:14 /0705/0705.4414 42120000[\Line, \Photon, \institute, \cancel, \ArrowLine, \Text, \Vertex, \SetWidth, \DashCArc, \CArc, \PhotonArc, \DashLine].
106510 2013-03-10 22:19:55 /0705/0705.4417 210000[\sep].
106511 2013-03-10 22:19:18 /0705/0705.4399 110000[\onlfig].
106512 2013-03-10 22:19:08 /0705/0705.4402 4430000[\catchline, {romanlist}, \psfig, Align, {history}, \revised, {align}, \received].
106513 2013-03-10 22:19:01 /0705/0705.4404 010000[\normalem].
106514 2013-03-10 22:18:28 /0705/0705.4374 520000[\toctitle, \D].
106515 2013-03-10 22:18:11 /0705/0705.4368 1190000[{lemma}, {theorem}, {corollary}, {AMS}, \thetheorem, {proof}, {proposition}].
106516 2013-03-10 22:18:09 /0705/0705.4371 1360000[\surname, \runningauthor, \institute, {opening}, {acknowledgements}, \keywords].
106517 2013-03-10 22:17:52 /0705/0705.4343 110000[\icarus].
106518 2013-03-10 22:17:20 /0705/0705.4290 930000[\twocolumngrid, \onecolumngrid]; 1 missing file[apjfonts.sty].
106519 2013-03-10 22:17:14 /0705/0705.4361 120000[\address, \PACS]; 1 missing file[appolx.cls].
106520 2013-03-10 22:16:15 /0705/0705.4321 1090000[\tag].
106521 2013-03-10 22:14:54 /0705/0705.4271 4010000[\geometry].
106522 2013-03-10 22:14:27 /0705/0705.4302 5160000[{keywords}, \firstpageno, \citeyearpar, \citep, \editor, \name, \ShortHeadings, \includegraphics, \email, \acks, \citet]; 1 missing file[jmlr2e.sty].
106523 2013-03-10 22:14:06 /0705/0705.4264 8910000[\institute].
106524 2013-03-10 22:13:59 /0705/0705.4269 70950000[\dTo, Align, \rTo, {diagram}].
106525 2013-03-10 22:13:56 /0705/0705.4267 29140000[\xypolynode, \xymatrix, \xy, \boxbslash, \xypolygon, \boxslash, \endxy, \xyoption, Align, \ar]; 1 missing file[xy.sty].
106526 2013-03-10 22:13:48 /0705/0705.4277 34440000[\sig, \Zee, \fA, \eps, \fH, \inprod, \Del, \Tee, \fB, \vphi, \comp, \oof, \wwith, \fT, \xymatrix, \ffor, Align, \what, \del, \cross, \iif, \fX, \til, \alp, \norm, \con, \dpair, \fV, \fY, \spn, \Sig, \ar, \wwhere, \iin, \aand, \Cee, \mult, \gam, \fC, \Gam
106527 2013-03-10 22:13:44 /0705/0705.4296 030000[\extrasenglish, \dateenglish, \captionsenglish].
106528 2013-03-10 22:13:38 /0705/0705.4281 890000[\citeaffixed, \citeyear, \harvardyearleft, \possessivecite, \citename, \harvarditem, \citeasnoun, \harvardand, \harvardyearright].
106529 2013-03-10 22:13:36 /0705/0705.4279 11320000[\con, \sig, \fP, \fA, \eps, \fB, \En, \comp, \Ree, \ar, \Sig, \wwith, \lam, \wwhere, \iin, \aand, \Cee, \gam, \mult, \xymatrix, \oor, \ffor, \iddots, \endpf, Align, \setdif, \del, \cross, \til, \norm, \alp]; 1 missing file[xy.sty].
106530 2013-03-10 22:12:50 /0705/0705.4226 452100000[\UnaryInfC, \xymatrix, \AxiomC, \xyoption, Align, \DisplayProof, \BinaryInfC, \LeftLabel, \ar]; 1 missing file[bussproofs.sty].
106531 2013-03-10 22:12:38 /0705/0705.4246 1650000[Align, \psfrag, \xymatrix, \ar]; 1 missing file[xy.sty].
106532 2013-03-10 22:12:23 /0705/0705.4254 270000[\arraybackslash].
106533 2013-03-10 22:12:22 /0705/0705.4256 210000[\geometry].
106534 2013-03-10 22:12:09 /0705/0705.4221 110140000[{definition}, {lemma}, {theorem}, {AMS}, {proof}, {proposition}].
106535 2013-03-10 22:12:00 /0705/0705.4231 9230000[\theappendix].
106536 2013-03-10 22:11:57 /0705/0705.4261 5350000[\inv, \pr, \lt, \sn, \n, \bw, {theorem1}, {theoreme2}, {theoreme1}, \abs, \bbt, \bfit, \osta, \bbb, \Bigbra, \ve, \bigbra, \bbone, \mn, \bbz, {theorem2}, \vp, \norm, \qua, \s, \bab, \inner, \aba, \E, \tb, \vt, \set, \bbr, \bbn]; 1 missing file[begmacras.
106537 2013-03-10 22:11:26 /0705/0705.4228 235620000[{prooftree}, \UnaryInfC, \RightLabel, \xyoption, \BinaryInfC, \DisplayProof, \AxiomC]; 1 missing file[bussproofs.sty].
106538 2013-03-10 22:11:17 /0705/0705.4236 1520000[\spacing].
106539 2013-03-10 22:10:43 /0705/0705.4193 31190000[\save, \cir, \xymatrix, \xy, \frm, \endxy, \POS, Align, \restore, \psfrag, \dir, {psfrags}, \ar]; 1 missing file[xy.sty].
106540 2013-03-10 22:10:05 /0705/0705.4216 7530000[\yng, \Yboxdim, \slashed].
106541 2013-03-10 22:09:42 /0705/0705.4220 2410000[\psfrag].
106542 2013-03-10 22:09:40 /0705/0705.4204 9150000[\Issue, \Month, \Receiveddate, \DOIsuffix, \Volume, \keywords, \pagespan, {SCfigure}, \subjclass, \Copyrightissue, \Year, {acknowledgement}].
106543 2013-03-10 22:08:43 /0705/0705.4194 2140000[Align, \xymatrix, \ar]; 1 missing file[xy.sty].
106544 2013-03-10 22:08:22 /0705/0705.4196 1860000[\al@[, \al@liu04, krist_etal05, metchev_etal05].
106545 2013-03-10 22:08:03 /0705/0705.4116 460180000[\startlocaldefs, \affiliation, \runtitle, \arxiv, \address, \atltitle, \setattribute, \kwd, \snm, \fnms, {keyword}, \endlocaldefs, {aug}, \runauthor, \printead, {frontmatter}, \ead]; 2 missing files[imsart.cls, colordvi.sty].
106546 2013-03-10 22:07:27 /0705/0705.4142 77140000[\yng, \xymatrix, \young, \Yvcentermath, \ar]; 9 missing files[xycurve.sty, xymatrix.sty, xyline.sty, xyarrow.sty, xycmtip.sty, xycolor.sty, xyrotate.sty, xyframe.sty, xygraph.sty].
106547 2013-03-10 22:07:03 /0705/0705.4151 14210000[\theappendix].
106548 2013-03-10 22:07:02 /0705/0705.4158 1910000[\theappendix].
106549 2013-03-10 22:06:49 /0705/0705.4161 3230000[\subjclass, \email, \keywords].
106550 2013-03-10 22:06:46 /0705/0705.4160 3890000[\fmffreeze, {fmffile}, \fmf, \fmftop, \fmfpen, {fmfgraph*}, \fmfleft, \fmfright].
106551 2013-03-10 22:06:37 /0705/0705.4175 590000[{acknowledgments}, \firstsection, \editors, \affiliation, \jname, \pagerange, \keywords, \volume, \pubyear]; 1 missing file[iaus.cls].
106552 2013-03-10 22:06:09 /0705/0705.4162 1420000[{subfigures}]; 1 missing file[subfloat.sty].
106553 2013-03-10 22:05:28 /0705/0705.4157 5730000[\subjclass, \email, \keywords].
106554 2013-03-10 22:05:20 /0705/0705.4166 320000[\examplename, \arabic].
106555 2013-03-10 22:04:17 /0705/0705.4155 1110000[\transl].
106556 2013-03-10 22:03:48 /0705/0705.4137 1880000[\t@gsin, \t@gline, \ftn@mber, \alloc@].
106557 2013-03-10 22:03:37 /0705/0705.4127 17200000[\dlto, \LaTeXdiagrams, \rto, \dto, \xymatrix, \UseAllTwocells, \xyoption, Align, @ , @
106558 2013-03-10 22:03:27 /0705/0705.4144 1190000[\citep, \pasj, \apjl, \aap, \procspie, \Accepted, \email, \pasp, \KeyWords, \draft, \aj, \altaffilmark, \Received, \mnras, \apjs, \FigureFile, \altaffiltext, \citet, \SetRunningHead]; 1 missing file[pasj00.cls].
106559 2013-03-10 22:03:24 /0705/0705.4128 130000[\PARstart, \IEEEpeerreviewmaketitle, \IEEEmembership]; 1 missing file[IEEEtran.cls].
106560 2013-03-10 22:03:12 /0705/0705.4126 160000[\ch@ck, \insc@unt].
106561 2013-03-10 22:03:08 /0705/0705.4109 2610000[\theappendix].
106562 2013-03-10 22:03:07 /0705/0705.4130 1880000[\t@gsin, \t@gline, \ftn@mber, \alloc@].
106563 2013-03-10 22:03:07 /0705/0705.4131 1880000[\t@gsin, \t@gline, \ftn@mber, \alloc@].
106564 2013-03-10 22:03:00 /0705/0705.4132 1880000[\t@gsin, \t@gline, \ftn@mber, \alloc@].
106565 2013-03-10 22:02:55 /0705/0705.4125 1910000[\psfrag].
106566 2013-03-10 22:02:32 /0705/0705.4121 030000[\extrasenglish, \dateenglish, \captionsenglish].
106567 2013-03-10 22:02:25 /0705/0705.4110 3130000[\conferenceinfo, \citeyear, \affaddr, \numberofauthors, \terms, \alignauthor, \keywords, \crdata, \CopyrightYear, \email, \category, \balancecolumns, {proof}].
106568 2013-03-10 22:02:18 /0705/0705.4085 420000[\curvearrowleftright, \curvearrowright].
106569 2013-03-10 22:01:49 /0705/0705.4115 040000[\catchline, {history}, \revised, \received].
106570 2013-03-10 22:01:42 /0705/0705.4080 5590000[\bowtext, \nodetext, {graph}, \edge, \roundnode, \graphnodesize, \bow, \edgetext].
106571 2013-03-10 22:01:12 /0705/0705.4090 520000[\varoiint]; 1 missing file[esint.sty].
106572 2013-03-10 22:00:36 /0705/0705.4068 2710000[\@end@institute].
106573 2013-03-10 22:00:35 /0705/0705.4094 2120000[\conferenceinfo, \affaddr, \numberofauthors, \terms, \alignauthor, \keywords, \crdata, \CopyrightYear, \email, \category, \balancecolumns, {proof}].
106574 2013-03-10 22:00:23 /0705/0705.4078 18120000[Align, \xymatrix, \ar]; 9 missing files[xycurve.sty, xymatrix.sty, xyline.sty, xyarrow.sty, xycmtip.sty, xycolor.sty, xyrotate.sty, xyframe.sty, xygraph.sty].
106575 2013-03-10 22:00:18 /0705/0705.4093 070000[\affil, \mnras, \pasp, \citep, \citet, \aap]; 1 missing file[asp2006.sty].
106576 2013-03-10 22:00:07 /0705/0705.4081 45310000[Align, \xymatrix, \ar]; 1 missing file[xy.sty].
106577 2013-03-10 21:59:52 /0705/0705.4064 15310000[\theappendix].
106578 2013-03-10 21:59:43 /0705/0705.4083 22110000[\Issue, \Month, \Receiveddate, \DOIsuffix, \Volume, \keywords, \pagespan, \subjclass, \Copyrightissue, \Year, {acknowledgement}].
106579 2013-03-10 21:58:48 /0705/0705.4071 320000[\theappendix, \psfrag].
106580 2013-03-10 21:57:39 /0705/0705.4042 110000[\psfrag].
106581 2013-03-10 21:57:21 /0705/0705.4041 390000[\pacs, \email, \shorttitle, \shortauthor, \institute, \acknowledgments, \etal]; 1 missing file[epl2.cls].
106582 2013-03-10 21:57:09 /0705/0705.4037 610000[\theappendix].
106583 2013-03-10 21:55:59 /0705/0705.4008 6010000[\smaller].
106584 2013-03-10 21:55:41 /0705/0705.3987 63210000[\node, \arrow, \dgARROWLENGTH, {diagram}].
106585 2013-03-10 21:55:38 /0705/0705.4023 140000[\authorinfo, \skiplinehalf, \keywords, \supit]; 1 missing file[spie.cls].
106586 2013-03-10 21:55:20 /0705/0705.4010 1170000[\apj, \inst, \degr, \pasj, \aap, \email, \volnopage, \titlerunning, \chjaa, \authorrunning, {acknowledgements}, \mailto, \aj, \institute, \keywords, \apjs, \mnras]; 1 missing file[chjaa.cls].
106587 2013-03-10 21:55:13 /0705/0705.3997 13300000[\epsfig, \psfig, \body, \tbl, \thechapter, \address, \colrule, \@currentID, \printindex, \botrule, \toprule, \figsubcap]; 2 missing files[ws-rv-van.sty, ws.sty].
106588 2013-03-10 21:54:57 /0705/0705.4005 3660000[\ccode, {lemma}, {theorem}, {remark}, {proposition}, \keywords].
106589 2013-03-10 21:54:01 /0705/0705.3965 120120000[{overpic}].
106590 2013-03-10 21:53:36 /0705/0705.3994 740000[\kword, \abst, \inst].
106591 2013-03-10 21:52:08 /0705/0705.3985 030000[\extrasenglish, \dateenglish, \captionsenglish].
106592 2013-03-10 21:51:52 /0705/0705.3957 1280000[{acknowledgments}, \ls, \affiliation, \ns, \pagerange, \upi, \volume, \pubyear]; 1 missing file[jfm.cls].
106593 2013-03-10 21:51:48 /0705/0705.3967 340000[\setrightmargin, \setbottommargin, \settopmargin, \setleftmargin].
106594 2013-03-10 21:51:33 /0705/0705.3934 3310000[\mathds].
106595 2013-03-10 21:51:24 /0705/0705.3938 3950000[Align, \xymatrix, \ar]; 1 missing file[xy.sty].
106596 2013-03-10 21:51:24 /0705/0705.3948 1540000[Align, \xymatrix, \ar]; 1 missing file[xy.sty].
106597 2013-03-10 21:51:04 /0705/0705.3943 1340000[\square, \affil, \blacktriangle, \acknowledgements]; 1 missing file[proto.cls].
106598 2013-03-10 21:51:01 /0705/0705.3961 1740000[Align, \xymatrix, \ar]; 1 missing file[xy.sty].
106599 2013-03-10 21:50:51 /0705/0705.3945 220000[\keywords]; 1 missing file[sao1.sty].
106600 2013-03-10 21:50:32 /0705/0705.3947 450000[\catchline, {history}, \revised, \text, \received].
<<< >>>

[0] [200] [400] [600] [800] [1000] [1200] [1400] [1600] [1800] [2000] [2200] [2400] [2600] [2800] [3000] [3200] [3400] [3600] [3800] [4000] [4200] [4400] [4600] [4800] [5000] [5200] [5400] [5600] [5800] [6000] [6200] [6400] [6600] [6800] [7000] [7200] [7400] [7600] [7800] [8000] [8200] [8400] [8600] [8800] [9000] [9200] [9400] [9600] [9800] [10000] [10200] [10400] [10600] [10800] [11000] [11200] [11400] [11600] [11800] [12000] [12200] [12400] [12600] [12800] [13000] [13200] [13400] [13600] [13800] [14000] [14200] [14400] [14600] [14800] [15000] [15200] [15400] [15600] [15800] [16000] [16200] [16400] [16600] [16800] [17000] [17200] [17400] [17600] [17800] [18000] [18200] [18400] [18600] [18800] [19000] [19200] [19400] [19600] [19800] [20000] [20200] [20400] [20600] [20800] [21000] [21200] [21400] [21600] [21800] [22000] [22200] [22400] [22600] [22800] [23000] [23200] [23400] [23600] [23800] [24000] [24200] [24400] [24600] [24800] [25000] [25200] [25400] [25600] [25800] [26000] [26200] [26400] [26600] [26800] [27000] [27200] [27400] [27600] [27800] [28000] [28200] [28400] [28600] [28800] [29000] [29200] [29400] [29600] [29800] [30000] [30200] [30400] [30600] [30800] [31000] [31200] [31400] [31600] [31800] [32000] [32200] [32400] [32600] [32800] [33000] [33200] [33400] [33600] [33800] [34000] [34200] [34400] [34600] [34800] [35000] [35200] [35400] [35600] [35800] [36000] [36200] [36400] [36600] [36800] [37000] [37200] [37400] [37600] [37800] [38000] [38200] [38400] [38600] [38800] [39000] [39200] [39400] [39600] [39800] [40000] [40200] [40400] [40600] [40800] [41000] [41200] [41400] [41600] [41800] [42000] [42200] [42400] [42600] [42800] [43000] [43200] [43400] [43600] [43800] [44000] [44200] [44400] [44600] [44800] [45000] [45200] [45400] [45600] [45800] [46000] [46200] [46400] [46600] [46800] [47000] [47200] [47400] [47600] [47800] [48000] [48200] [48400] [48600] [48800] [49000] [49200] [49400] [49600] [49800] [50000] [50200] [50400] [50600] [50800] [51000] [51200] [51400] [51600] [51800] [52000] [52200] [52400] [52600] [52800] [53000] [53200] [53400] [53600] [53800] [54000] [54200] [54400] [54600] [54800] [55000] [55200] [55400] [55600] [55800] [56000] [56200] [56400] [56600] [56800] [57000] [57200] [57400] [57600] [57800] [58000] [58200] [58400] [58600] [58800] [59000] [59200] [59400] [59600] [59800] [60000] [60200] [60400] [60600] [60800] [61000] [61200] [61400] [61600] [61800] [62000] [62200] [62400] [62600] [62800] [63000] [63200] [63400] [63600] [63800] [64000] [64200] [64400] [64600] [64800] [65000] [65200] [65400] [65600] [65800] [66000] [66200] [66400] [66600] [66800] [67000] [67200] [67400] [67600] [67800] [68000] [68200] [68400] [68600] [68800] [69000] [69200] [69400] [69600] [69800] [70000] [70200] [70400] [70600] [70800] [71000] [71200] [71400] [71600] [71800] [72000] [72200] [72400] [72600] [72800] [73000] [73200] [73400] [73600] [73800] [74000] [74200] [74400] [74600] [74800] [75000] [75200] [75400] [75600] [75800] [76000] [76200] [76400] [76600] [76800] [77000] [77200] [77400] [77600] [77800] [78000] [78200] [78400] [78600] [78800] [79000] [79200] [79400] [79600] [79800] [80000] [80200] [80400] [80600] [80800] [81000] [81200] [81400] [81600] [81800] [82000] [82200] [82400] [82600] [82800] [83000] [83200] [83400] [83600] [83800] [84000] [84200] [84400] [84600] [84800] [85000] [85200] [85400] [85600] [85800] [86000] [86200] [86400] [86600] [86800] [87000] [87200] [87400] [87600] [87800] [88000] [88200] [88400] [88600] [88800] [89000] [89200] [89400] [89600] [89800] [90000] [90200] [90400] [90600] [90800] [91000] [91200] [91400] [91600] [91800] [92000] [92200] [92400] [92600] [92800] [93000] [93200] [93400] [93600] [93800] [94000] [94200] [94400] [94600] [94800] [95000] [95200] [95400] [95600] [95800] [96000] [96200] [96400] [96600] [96800] [97000] [97200] [97400] [97600] [97800] [98000] [98200] [98400] [98600] [98800] [99000] [99200] [99400] [99600] [99800] [100000] [100200] [100400] [100600] [100800] [101000] [101200] [101400] [101600] [101800] [102000] [102200] [102400] [102600] [102800] [103000] [103200] [103400] [103600] [103800] [104000] [104200] [104400] [104600] [104800] [105000] [105200] [105400] [105600] [105800] [106000] [106200] [106400] [106600] [106800] [107000] [107200] [107400] [107600] [107800] [108000] [108200] [108400] [108600] [108800] [109000] [109200] [109400] [109600] [109800] [110000] [110200] [110400] [110600] [110800] [111000] [111200] [111400] [111600] [111800] [112000] [112200] [112400] [112600] [112800] [113000] [113200] [113400] [113600] [113800] [114000] [114200] [114400] [114600] [114800] [115000] [115200] [115400] [115600] [115800] [116000] [116200] [116400] [116600] [116800] [117000] [117200] [117400] [117600] [117800] [118000] [118200] [118400] [118600] [118800] [119000] [119200] [119400] [119600] [119800] [120000] [120200] [120400] [120600] [120800] [121000] [121200] [121400] [121600] [121800] [122000] [122200] [122400] [122600] [122800] [123000] [123200] [123400] [123600] [123800] [124000] [124200] [124400] [124600] [124800] [125000] [125200] [125400] [125600] [125800] [126000] [126200] [126400] [126600] [126800] [127000] [127200] [127400] [127600] [127800] [128000] [128200] [128400] [128600] [128800] [129000] [129200] [129400] [129600] [129800] [130000] [130200] [130400] [130600] [130800] [131000] [131200] [131400] [131600] [131800] [132000] [132200] [132400] [132600] [132800] [133000] [133200] [133400] [133600] [133800] [134000] [134200] [134400] [134600] [134800] [135000] [135200] [135400] [135600] [135800] [136000] [136200] [136400] [136600] [136800] [137000] [137200] [137400] [137600] [137800] [138000] [138200] [138400] [138600] [138800] [139000] [139200] [139400] [139600] [139800] [140000] [140200] [140400] [140600] [140800] [141000] [141200] [141400] [141600] [141800] [142000] [142200] [142400] [142600] [142800] [143000] [143200] [143400] [143600] [143800] [144000] [144200] [144400] [144600] [144800] [145000] [145200] [145400] [145600] [145800] [146000] [146200] [146400] [146600] [146800] [147000] [147200] [147400] [147600] [147800] [148000] [148200] [148400] [148600] [148800] [149000] [149200] [149400] [149600] [149800] [150000] [150200] [150400] [150600] [150800] [151000] [151200] [151400] [151600] [151800] [152000] [152200] [152400] [152600] [152800] [153000] [153200] [153400] [153600] [153800] [154000] [154200] [154400] [154600] [154800] [155000] [155200] [155400] [155600] [155800] [156000] [156200] [156400] [156600] [156800] [157000] [157200] [157400] [157600] [157800] [158000] [158200] [158400] [158600] [158800] [159000] [159200] [159400] [159600] [159800] [160000] [160200] [160400] [160600] [160800] [161000] [161200] [161400] [161600] [161800] [162000] [162200] [162400] [162600] [162800] [163000] [163200] [163400] [163600] [163800] [164000] [164200] [164400] [164600]
 
  The service has been written by
Heinrich Stamerjohanns